Time;durP1;ratioP1;P1;durP2;ratioP2;P2;SDS_P1;SDS_P2;PMS_P1;PMS_P2;Temp;Humidity;BMP_temperature;BMP_pressure;BME280_temperature;BME280_humidity;BME280_pressure;Samples;Min_cycle;Max_cycle;Signal;HPM_P1;HPM_P2
2022/11/02 00:00:44;;;;;;;16.83;2.08;;;9.60;99.90;;;9.08;100.00;97933.78;4976813;28;20051;-72
2022/11/02 00:03:11;;;;;;;9.55;1.58;;;9.60;99.90;;;8.97;100.00;97936.69;4959648;28;20855;-71
2022/11/02 00:05:37;;;;;;;18.42;2.05;;;9.60;99.90;;;8.91;100.00;97936.03;4963272;28;20404;-72
2022/11/02 00:08:04;;;;;;;12.43;2.30;;;9.60;99.90;;;8.94;100.00;97933.34;4960972;28;20058;-71
2022/11/02 00:10:31;;;;;;;14.07;1.75;;;9.70;99.90;;;8.95;100.00;97937.63;4961445;28;20051;-71
2022/11/02 00:12:58;;;;;;;13.75;2.03;;;9.60;99.90;;;9.09;100.00;97932.03;4960080;28;20055;-71
2022/11/02 00:15:29;;;;;;;15.48;2.38;;;9.60;99.90;;;9.00;100.00;97928.81;4961071;28;20102;-71
2022/11/02 00:18:03;;;;;;;9.95;2.00;;;9.60;99.90;;;9.07;100.00;97929.47;4977627;28;20057;-72
2022/11/02 00:20:30;;;;;;;12.90;1.77;;;9.50;99.90;;;9.12;100.00;97929.34;4976693;28;20050;-72
2022/11/02 00:23:00;;;;;;;12.95;1.58;;;9.60;99.90;;;9.10;100.00;97936.31;4960528;28;20054;-71
2022/11/02 00:25:29;;;;;;;15.98;1.52;;;9.60;99.90;;;9.10;100.00;97936.31;4978190;28;20058;-71
2022/11/02 00:27:55;;;;;;;9.57;1.70;;;9.60;99.90;;;9.11;100.00;97931.09;4961797;28;20050;-72
2022/11/02 00:30:22;;;;;;;13.48;2.15;;;9.60;99.90;;;9.08;100.00;97926.03;4963500;28;20058;-70
2022/11/02 00:32:50;;;;;;;9.77;1.73;;;9.60;99.90;;;9.16;100.00;97925.78;4961448;28;20057;-72
2022/11/02 00:35:17;;;;;;;11.80;1.42;;;9.60;99.90;;;9.28;100.00;97915.00;4972371;28;20043;-70
2022/11/02 00:37:44;;;;;;;9.65;1.80;;;9.60;99.90;;;9.24;100.00;97920.34;4971916;28;20054;-72
2022/11/02 00:40:11;;;;;;;14.93;2.65;;;9.60;99.90;;;9.20;100.00;97924.78;4963221;28;20824;-71
2022/11/02 00:42:38;;;;;;;16.25;2.17;;;9.70;99.90;;;9.12;100.00;97922.44;4962059;28;20135;-72
2022/11/02 00:45:06;;;;;;;11.60;1.40;;;9.60;99.90;;;9.16;100.00;97923.19;4961680;28;20065;-72
2022/11/02 00:47:33;;;;;;;11.30;1.50;;;9.60;99.90;;;9.15;100.00;97922.34;4962066;28;20051;-71
2022/11/02 00:50:00;;;;;;;10.80;1.60;;;9.60;99.90;;;9.19;100.00;97923.06;4960053;28;20134;-73
2022/11/02 00:52:27;;;;;;;10.05;1.50;;;9.60;99.90;;;9.18;100.00;97923.97;4960822;28;20054;-71
2022/11/02 00:54:54;;;;;;;8.77;1.83;;;9.60;99.90;;;9.24;100.00;97935.88;4960524;28;20055;-72
2022/11/02 00:57:21;;;;;;;10.40;1.80;;;9.70;99.90;;;9.20;100.00;97929.97;4957382;28;20054;-72
2022/11/02 00:59:48;;;;;;;13.98;1.75;;;9.70;99.90;;;9.21;100.00;97923.88;4962675;28;20047;-71
2022/11/02 01:02:15;;;;;;;17.38;2.33;;;9.70;99.90;;;9.26;100.00;97922.00;4961172;28;20061;-72
2022/11/02 01:04:42;;;;;;;11.40;1.75;;;9.70;99.90;;;9.27;100.00;97925.44;4961572;28;20109;-72
2022/11/02 01:07:09;;;;;;;10.18;1.52;;;9.60;99.90;;;9.13;100.00;97931.06;4974702;28;20089;-71
2022/11/02 01:09:36;;;;;;;10.13;1.60;;;9.60;99.90;;;9.08;100.00;97923.44;4962353;28;20054;-71
2022/11/02 01:12:04;;;;;;;10.13;1.75;;;9.60;99.90;;;9.09;100.00;97919.09;4962605;28;20050;-73
2022/11/02 01:14:31;;;;;;;13.60;1.90;;;9.60;99.90;;;9.11;100.00;97912.13;4964750;28;20106;-71
2022/11/02 01:16:58;;;;;;;17.45;2.35;;;9.60;99.90;;;9.17;100.00;97912.78;4964082;28;20051;-72
2022/11/02 01:19:25;;;;;;;10.88;1.95;;;9.60;99.90;;;9.16;100.00;97905.91;4964727;28;20069;-72
2022/11/02 01:21:52;;;;;;;12.13;1.83;;;9.60;99.90;;;9.13;100.00;97906.00;4967780;28;20054;-72
2022/11/02 01:24:19;;;;;;;10.20;1.40;;;9.60;99.90;;;9.05;100.00;97912.31;4963942;28;20046;-72
2022/11/02 01:26:51;;;;;;;12.15;2.00;;;9.60;99.90;;;9.07;100.00;97902.75;4966529;28;20065;-72
2022/11/02 01:29:18;;;;;;;19.45;2.45;;;9.60;99.90;;;9.07;100.00;97905.34;4961977;28;20161;-70
2022/11/02 01:31:45;;;;;;;10.70;1.65;;;9.50;99.90;;;8.99;100.00;97903.84;4965588;28;20047;-72
2022/11/02 01:34:12;;;;;;;14.88;2.13;;;9.50;99.90;;;9.04;100.00;97901.09;4963232;28;20149;-70
2022/11/02 01:36:39;;;;;;;12.70;2.13;;;9.50;99.90;;;9.09;100.00;97898.38;4965747;28;20046;-71
2022/11/02 01:39:06;;;;;;;12.82;1.55;;;9.50;99.90;;;8.99;100.00;97900.41;4980572;28;20055;-71
2022/11/02 01:41:33;;;;;;;10.98;1.75;;;9.50;99.90;;;8.98;100.00;97899.53;4966699;28;20077;-72
2022/11/02 01:44:04;;;;;;;11.55;1.60;;;9.40;99.90;;;9.00;100.00;97892.56;4964909;28;20054;-70
2022/11/02 01:46:44;;;;;;;13.35;1.88;;;9.50;99.90;;;8.97;100.00;97894.44;4963582;28;20547;-71
2022/11/02 01:49:18;;;;;;;15.02;2.13;;;9.50;99.90;;;8.97;100.00;97905.63;4966171;28;20057;-71
2022/11/02 01:51:59;;;;;;;9.23;1.52;;;9.40;99.90;;;8.95;100.00;97897.06;4978503;28;20058;-70
2022/11/02 01:54:36;;;;;;;14.07;1.98;;;9.40;99.90;;;8.88;100.00;97900.72;4963510;28;20043;-69
2022/11/02 01:57:08;;;;;;;10.95;1.77;;;9.40;99.90;;;8.98;100.00;97898.69;4973668;28;20297;-71
2022/11/02 01:59:47;;;;;;;15.85;2.95;;;9.50;99.90;;;9.06;100.00;97893.31;4980969;28;20054;-71
2022/11/02 02:02:21;;;;;;;14.93;1.80;;;9.50;99.90;;;9.09;100.00;97898.38;4979405;28;20058;-71
2022/11/02 02:04:55;;;;;;;10.60;1.52;;;9.60;99.90;;;9.13;100.00;97900.81;4964077;28;20137;-71
2022/11/02 02:07:24;;;;;;;10.80;2.08;;;9.60;99.90;;;9.23;100.00;97884.97;4979069;28;20046;-72
2022/11/02 02:09:52;;;;;;;12.65;2.03;;;9.70;99.90;;;9.25;100.00;97889.22;4962617;28;20508;-71
2022/11/02 02:12:20;;;;;;;9.80;1.65;;;9.80;99.90;;;9.36;100.00;97892.31;4965267;28;20134;-71
2022/11/02 02:14:47;;;;;;;14.43;2.13;;;9.90;99.90;;;9.41;100.00;97893.00;4979035;28;20047;-70
2022/11/02 02:17:40;;;;;;;14.93;1.88;;;9.90;99.90;;;9.43;100.00;97896.38;4977862;28;20076;-70
2022/11/02 02:20:19;;;;;;;9.77;1.90;;;10.00;99.90;;;9.50;100.00;97888.41;4959657;28;20047;-69
2022/11/02 02:23:24;;;;;;;11.63;2.00;;;10.10;99.90;;;9.64;100.00;97884.44;4958419;28;20050;-71
2022/11/02 02:26:20;;;;;;;12.40;2.00;;;10.10;99.90;;;9.62;100.00;97880.22;4959149;28;20640;-71
2022/11/02 02:29:15;;;;;;;8.27;1.52;;;10.20;99.90;;;9.68;100.00;97898.16;4961578;28;20050;-71
2022/11/02 02:31:55;;;;;;;13.43;2.03;;;10.20;99.90;;;9.76;100.00;97883.22;4977256;28;20051;-72
2022/11/02 02:34:34;;;;;;;11.00;1.70;;;10.30;99.90;;;9.76;100.00;97885.81;4968123;28;20528;-72
2022/11/02 02:37:17;;;;;;;10.68;1.90;;;10.30;99.90;;;9.74;100.00;97881.53;4967501;28;20077;-71
2022/11/02 02:40:08;;;;;;;;;;;10.30;99.90;;;9.75;100.00;97889.28;4963110;28;20158;-72
2022/11/02 02:42:52;;;;;;;12.85;1.73;;;10.30;99.90;;;9.69;100.00;97871.34;4962428;28;19934;-72
2022/11/02 02:45:55;;;;;;;11.95;2.00;;;10.30;99.90;;;9.76;100.00;97875.44;4962420;28;20062;-72
2022/11/02 02:48:24;;;;;;;12.95;2.10;;;10.30;99.90;;;9.75;100.00;97888.44;4964168;28;20073;-72
2022/11/02 02:51:07;;;;;;;11.60;1.88;;;10.40;99.90;;;9.78;100.00;97888.31;4963383;28;20150;-71
2022/11/02 02:53:47;;;;;;;10.93;1.60;;;10.40;99.90;;;9.81;100.00;97902.03;4961446;28;20147;-72
2022/11/02 02:56:19;;;;;;;8.73;1.73;;;10.40;99.90;;;9.83;100.00;97886.44;4976927;28;20055;-72
2022/11/02 02:58:51;;;;;;;11.02;1.40;;;10.40;99.90;;;9.83;100.00;97886.44;4963961;28;20513;-72
2022/11/02 03:01:19;;;;;;;10.73;1.53;;;10.40;99.90;;;9.84;100.00;97894.16;4963248;28;20051;-72
2022/11/02 03:03:46;;;;;;;10.77;1.33;;;10.40;99.90;;;9.84;100.00;97894.16;4962704;28;20060;-71
2022/11/02 03:06:21;;;;;;;9.48;1.55;;;10.40;99.90;;;9.74;100.00;97905.75;4964116;28;20501;-72
2022/11/02 03:09:18;;;;;;;12.85;1.60;;;10.40;99.90;;;9.73;100.00;97898.84;4960824;28;20055;-71
2022/11/02 03:11:53;;;;;;;11.60;2.00;;;10.40;99.90;;;9.82;100.00;97884.72;4975814;28;20061;-71
2022/11/02 03:14:54;;;;;;;16.48;1.70;;;10.30;99.90;;;9.76;100.00;97890.13;4962557;28;20039;-72
2022/11/02 03:17:33;;;;;;;13.43;1.50;;;10.40;99.90;;;9.78;100.00;97888.31;4963963;28;20549;-72
2022/11/02 03:20:27;;;;;;;13.45;1.80;;;10.40;99.90;;;9.77;100.00;97895.25;4960518;28;20051;-72
2022/11/02 03:23:12;;;;;;;;;;;10.40;99.90;;;9.76;100.00;97898.75;4976802;28;20063;-71
2022/11/02 03:25:44;;;;;;;8.82;1.25;;;10.40;99.90;;;9.84;100.00;97901.91;4959537;28;20379;-71
2022/11/02 03:28:22;;;;;;;9.40;2.33;;;10.50;99.90;;;9.81;100.00;97891.66;4965480;28;20074;-72
2022/11/02 03:31:07;;;;;;;7.93;2.00;;;10.50;99.90;;;9.86;100.00;97888.91;4960391;28;20141;-70
2022/11/02 03:33:46;;;;;;;11.70;1.98;;;10.50;99.90;;;9.81;100.00;97891.66;4961177;28;20070;-70
2022/11/02 03:36:20;;;;;;;10.05;1.50;;;10.50;99.90;;;9.89;100.00;97900.94;4961993;28;20073;-71
2022/11/02 03:38:53;;;;;;;9.68;1.20;;;10.60;99.90;;;9.90;100.00;97906.06;4962786;28;20137;-71
2022/11/02 03:41:23;;;;;;;10.75;1.75;;;10.60;99.90;;;9.82;100.00;97908.06;4977415;28;20147;-72
2022/11/02 03:43:58;;;;;;;9.60;1.40;;;10.60;99.90;;;9.81;100.00;97912.41;4974284;28;20481;-72
2022/11/02 03:46:26;;;;;;;9.57;1.48;;;10.60;99.90;;;9.95;100.00;97918.88;4961983;28;20080;-71
2022/11/02 03:48:55;;;;;;;11.48;1.92;;;10.60;99.90;;;9.93;100.00;97920.66;4961743;28;20079;-71
2022/11/02 03:51:24;;;;;;;15.70;1.75;;;10.60;99.90;;;9.97;100.00;97927.44;4975567;28;20058;-71
2022/11/02 03:54:09;;;;;;;9.48;1.60;;;10.60;99.90;;;9.97;100.00;97943.84;4974212;28;20071;-70
2022/11/02 03:56:43;;;;;;;12.68;1.70;;;10.60;99.90;;;10.02;100.00;97922.94;4974856;28;20728;-70
2022/11/02 03:59:09;;;;;;;9.73;1.52;;;10.70;99.90;;;10.02;100.00;97934.16;4964630;28;20061;-71
2022/11/02 04:01:42;;;;;;;12.02;1.67;;;10.70;99.90;;;9.96;100.00;97938.69;4959210;28;20095;-70
2022/11/02 04:04:10;;;;;;;10.75;1.63;;;10.70;99.90;;;9.96;100.00;97936.94;4976933;28;20182;-70
2022/11/02 04:06:38;;;;;;;11.10;1.95;;;10.80;99.90;;;9.98;100.00;97948.13;4964197;28;20043;-71
2022/11/02 04:09:05;;;;;;;14.20;1.83;;;10.80;99.90;;;10.12;100.00;97942.47;4961753;28;20046;-70
2022/11/02 04:19:55;;;;;;;8.50;1.42;;;10.80;99.90;;;10.15;100.00;97937.19;4974917;28;20129;-70
2022/11/02 04:25:19;;;;;;;11.13;1.98;;;10.70;99.90;;;10.03;100.00;97938.47;4961214;28;20066;-70
2022/11/02 04:27:55;;;;;;;15.80;2.00;;;10.70;99.90;;;9.97;100.00;97956.81;4962382;28;20106;-70
2022/11/02 04:30:22;;;;;;;9.40;1.88;;;10.60;99.90;;;9.88;100.00;97945.91;4963102;28;20054;-71
2022/11/02 04:35:36;;;;;;;13.38;2.35;;;10.40;99.90;;;9.80;100.00;97949.59;4962944;28;20524;-69
2022/11/02 04:41:40;;;;;;;11.77;1.83;;;10.30;99.90;;;9.77;100.00;97951.44;4962026;28;20051;-71
2022/11/02 04:43:36;;;;;;;13.00;1.92;;;10.40;99.90;;;9.82;100.00;97965.09;4959932;28;20051;-70
2022/11/02 04:46:03;;;;;;;12.82;2.17;;;10.40;99.90;;;9.91;100.00;97979.50;4959389;28;20051;-71
2022/11/02 04:48:30;;;;;;;15.05;1.77;;;10.50;99.90;;;9.92;100.00;97986.38;4979668;28;20077;-70
2022/11/02 04:50:57;;;;;;;13.05;1.70;;;10.50;99.90;;;9.93;100.00;97975.13;4966270;28;20082;-71
2022/11/02 04:53:24;;;;;;;21.88;2.38;;;10.50;99.90;;;9.91;100.00;97989.88;4966304;28;20058;-70
2022/11/02 04:55:51;;;;;;;16.25;1.83;;;10.50;99.90;;;9.91;100.00;97974.31;4965181;28;20049;-70
2022/11/02 04:58:18;;;;;;;8.27;1.35;;;10.60;99.90;;;9.87;100.00;97986.53;4964472;28;20123;-70
2022/11/02 05:00:44;;;;;;;12.07;1.80;;;10.60;99.90;;;9.94;100.00;97982.00;4967139;28;20054;-71
2022/11/02 05:03:11;;;;;;;9.32;1.42;;;10.50;99.90;;;9.89;100.00;97968.34;4966047;28;20062;-70
2022/11/02 05:05:38;;;;;;;10.00;1.60;;;10.60;99.90;;;9.81;100.00;97986.75;4981781;28;20070;-70
2022/11/02 05:08:05;;;;;;;13.88;2.05;;;10.60;99.90;;;9.71;100.00;97983.59;4979579;28;20057;-71
2022/11/02 05:10:33;;;;;;;15.10;2.53;;;10.60;99.90;;;9.78;100.00;97989.44;4964914;28;20051;-71
2022/11/02 05:13:01;;;;;;;14.02;1.75;;;10.50;99.90;;;9.73;100.00;97986.97;4981158;28;20061;-71
2022/11/02 05:15:28;;;;;;;14.23;1.67;;;10.40;99.90;;;9.81;100.00;97986.75;4980332;28;20055;-71
2022/11/02 05:17:55;;;;;;;9.32;1.33;;;10.40;99.90;;;9.65;100.00;97994.19;4964694;28;20047;-70
2022/11/02 05:20:22;;;;;;;16.23;2.15;;;10.40;99.90;;;9.67;100.00;97996.69;4966479;28;20047;-71
2022/11/02 05:22:48;;;;;;;18.80;2.13;;;10.30;99.90;;;9.67;100.00;97996.69;4965171;28;20058;-70
2022/11/02 05:25:15;;;;;;;16.15;1.85;;;10.30;99.90;;;9.69;100.00;97992.31;4965659;28;20567;-70
2022/11/02 05:27:42;;;;;;;12.70;1.95;;;10.30;99.90;;;9.63;100.00;97989.03;4967156;28;20057;-69
2022/11/02 05:30:10;;;;;;;11.43;1.83;;;10.30;99.90;;;9.64;100.00;97982.94;4966445;28;20078;-71
2022/11/02 05:32:37;;;;;;;17.00;2.25;;;10.30;99.90;;;9.55;100.00;97985.84;4961579;28;20063;-70
2022/11/02 05:35:04;;;;;;;14.40;1.98;;;10.30;99.90;;;9.47;100.00;97995.59;4965118;28;20053;-69
2022/11/02 05:37:32;;;;;;;16.30;1.90;;;10.30;99.90;;;9.43;100.00;97994.84;4963938;28;20058;-71
2022/11/02 05:39:58;;;;;;;11.02;1.58;;;10.20;99.90;;;9.55;100.00;97995.34;4964535;28;20055;-71
2022/11/02 05:42:25;;;;;;;13.55;2.00;;;10.20;99.90;;;9.60;100.00;97993.47;4966198;28;20042;-70
2022/11/02 05:44:52;;;;;;;12.60;2.38;;;10.10;99.90;;;9.61;100.00;97987.41;4966944;28;20063;-71
2022/11/02 05:47:19;;;;;;;13.65;2.05;;;10.20;99.90;;;9.61;100.00;97990.81;4969105;28;20138;-70
2022/11/02 05:49:46;;;;;;;12.95;1.67;;;10.20;99.90;;;9.51;100.00;98002.41;4965720;28;20149;-71
2022/11/02 05:52:13;;;;;;;12.60;1.70;;;10.20;99.90;;;9.54;100.00;97989.34;4965563;28;20065;-70
2022/11/02 05:54:40;;;;;;;11.50;2.42;;;10.20;99.90;;;9.46;100.00;97996.50;4963632;28;20039;-71
2022/11/02 05:57:07;;;;;;;15.35;2.40;;;10.10;99.90;;;9.47;100.00;97989.59;4965489;28;20061;-71
2022/11/02 05:59:34;;;;;;;9.75;1.73;;;10.20;99.90;;;9.47;100.00;98000.78;4964916;28;20051;-72
2022/11/02 06:02:01;;;;;;;16.40;2.30;;;10.10;99.90;;;9.47;100.00;97984.41;4965498;28;20512;-70
2022/11/02 06:04:28;;;;;;;11.57;1.88;;;10.00;99.90;;;9.46;100.00;97988.72;4965283;28;20070;-72
2022/11/02 06:06:55;;;;;;;11.50;1.65;;;10.00;99.90;;;9.43;100.00;97984.47;4965473;28;20054;-72
2022/11/02 06:09:22;;;;;;;14.68;1.65;;;9.90;99.90;;;9.35;100.00;97990.78;4966854;28;20359;-73
2022/11/02 06:11:49;;;;;;;13.07;1.80;;;9.90;99.90;;;9.32;100.00;97996.06;4967674;28;20055;-73
2022/11/02 06:14:16;;;;;;;12.82;2.25;;;9.80;99.90;;;9.36;100.00;98008.06;4967277;28;20047;-72
2022/11/02 06:16:43;;;;;;;19.92;2.22;;;9.80;99.90;;;9.29;100.00;98006.53;4966033;28;20507;-73
2022/11/02 06:19:09;;;;;;;13.15;2.25;;;9.80;99.90;;;9.31;100.00;98012.53;4957730;28;20047;-73
2022/11/02 06:21:36;;;;;;;15.63;1.75;;;9.80;99.90;;;9.28;100.00;98004.84;4967505;28;20779;-73
2022/11/02 06:24:03;;;;;;;7.53;1.52;;;9.80;99.90;;;9.26;100.00;98009.22;4968623;28;20138;-72
2022/11/02 06:26:30;;;;;;;16.63;2.00;;;9.80;99.90;;;9.19;100.00;98014.59;4967620;28;20043;-72
2022/11/02 06:28:58;;;;;;;11.48;1.98;;;9.80;99.90;;;9.25;100.00;98013.56;4967624;28;20098;-72
2022/11/02 06:31:25;;;;;;;13.02;2.35;;;9.80;99.90;;;9.24;100.00;98024.81;4967976;28;20066;-72
2022/11/02 06:33:52;;;;;;;13.98;2.10;;;9.80;99.90;;;9.21;100.00;98027.47;4982459;28;20050;-73
2022/11/02 06:36:18;;;;;;;11.40;2.20;;;9.70;99.90;;;9.29;100.00;98024.69;4965744;28;20057;-73
2022/11/02 06:38:45;;;;;;;9.90;1.40;;;9.80;99.90;;;9.29;100.00;98032.44;4967185;28;20042;-73
2022/11/02 06:41:12;;;;;;;13.13;2.03;;;9.70;99.90;;;9.16;100.00;98042.31;4966325;28;20057;-72
2022/11/02 06:43:39;;;;;;;10.65;2.55;;;9.70;99.90;;;9.22;100.00;98034.38;4967845;28;20051;-72
2022/11/02 06:46:06;;;;;;;13.90;2.00;;;9.70;99.90;;;9.16;100.00;98037.97;4965750;28;20073;-73
2022/11/02 06:48:33;;;;;;;12.27;2.28;;;9.70;99.90;;;9.25;100.00;98039.44;4965873;28;20053;-73
2022/11/02 06:51:03;;;;;;;15.85;2.45;;;9.70;99.90;;;9.14;100.00;98046.69;4970176;28;20497;-73
2022/11/02 06:53:31;;;;;;;13.30;2.60;;;9.70;99.90;;;9.24;100.00;98049.84;4967684;28;20057;-71
2022/11/02 06:55:59;;;;;;;15.98;2.10;;;9.70;99.90;;;9.16;100.00;98053.50;4965724;28;20054;-73
2022/11/02 06:58:26;;;;;;;12.98;2.13;;;9.80;99.90;;;9.23;100.00;98056.78;4965841;28;20073;-73
2022/11/02 07:01:04;;;;;;;15.07;2.28;;;9.70;99.90;;;9.15;100.00;98063.94;4968871;28;20059;-72
2022/11/02 07:03:31;;;;;;;15.65;2.50;;;9.70;99.90;;;9.23;100.00;98064.53;4967661;28;20121;-73
2022/11/02 07:05:59;;;;;;;12.38;2.08;;;9.80;99.90;;;9.24;100.00;98060.22;4965927;28;20051;-73
2022/11/02 07:08:27;;;;;;;17.23;2.15;;;9.70;99.90;;;9.25;100.00;98073.13;4967105;28;20134;-72
2022/11/02 07:10:54;;;;;;;11.18;2.08;;;9.80;99.90;;;9.26;100.00;98080.03;4964958;28;20063;-73
2022/11/02 07:13:21;;;;;;;14.75;1.77;;;9.80;99.90;;;9.29;100.00;98076.50;4966745;28;20043;-72
2022/11/02 07:15:52;;;;;;;12.63;1.90;;;9.90;99.90;;;9.37;100.00;98090.03;4962117;28;20058;-73
2022/11/02 07:18:19;;;;;;;11.43;2.30;;;9.90;99.90;;;9.40;100.00;98090.81;4963017;28;20060;-73
2022/11/02 07:20:46;;;;;;;12.80;1.92;;;9.90;99.90;;;9.41;100.00;98094.25;4968013;28;20397;-71
2022/11/02 07:23:13;;;;;;;13.88;1.77;;;10.00;99.90;;;9.49;100.00;98094.88;4966408;28;20053;-70
2022/11/02 07:25:40;;;;;;;12.32;1.75;;;10.10;99.90;;;9.52;100.00;98104.31;4967396;28;20061;-71
2022/11/02 07:28:07;;;;;;;10.77;2.05;;;10.10;99.90;;;9.47;100.00;98106.19;4968638;28;20053;-71
2022/11/02 07:30:34;;;;;;;13.40;1.92;;;10.10;99.90;;;9.57;100.00;98103.25;4964781;28;20069;-70
2022/11/02 07:33:01;;;;;;;14.77;1.88;;;10.20;99.90;;;9.60;100.00;98104.91;4962300;28;20095;-70
2022/11/02 07:35:29;;;;;;;10.60;1.45;;;10.30;99.90;;;9.56;100.00;98114.53;4963779;28;20132;-71
2022/11/02 07:38:04;;;;;;;13.57;1.70;;;10.30;99.90;;;9.68;100.00;98110.72;4964220;28;20513;-71
2022/11/02 07:40:34;;;;;;;9.77;1.77;;;10.30;99.90;;;9.70;100.00;98105.50;4961957;28;20055;-71
2022/11/02 07:43:02;;;;;;;11.43;2.05;;;10.30;99.90;;;9.64;100.00;98116.88;4960084;28;20078;-71
2022/11/02 07:45:31;;;;;;;11.73;1.50;;;10.30;99.90;;;9.63;100.00;98120.38;4962974;28;20051;-71
2022/11/02 07:47:58;;;;;;;13.45;2.65;;;10.40;99.90;;;9.72;100.00;98121.84;4974948;28;20051;-71
2022/11/02 07:50:28;;;;;;;17.10;3.28;;;10.30;99.90;;;9.70;100.00;98118.47;4963614;28;20053;-71
2022/11/02 07:52:56;;;;;;;16.40;2.20;;;10.30;99.90;;;9.64;100.00;98129.84;4964057;28;20047;-71
2022/11/02 07:55:29;;;;;;;10.98;2.30;;;10.40;99.90;;;9.77;100.00;98133.75;4962137;28;20043;-70
2022/11/02 07:58:02;;;;;;;17.23;2.53;;;10.40;99.90;;;9.84;100.00;98134.44;4961517;28;20064;-71
2022/11/02 08:00:31;;;;;;;;;;;10.40;99.90;;;9.83;100.00;98132.75;4960754;28;20058;-71
2022/11/02 08:03:00;;;;;;;12.70;2.53;;;10.40;99.90;;;9.89;100.00;98139.47;4961956;28;19930;-71
2022/11/02 08:05:29;;;;;;;15.02;2.60;;;10.50;99.90;;;10.06;100.00;98139.81;4962369;28;20573;-71
2022/11/02 08:08:07;;;;;;;13.45;2.95;;;10.60;99.90;;;10.07;100.00;98141.50;4963223;28;20095;-71
2022/11/02 08:10:36;;;;;;;17.73;3.20;;;10.70;99.90;;;10.03;100.00;98161.50;4961259;28;20082;-70
2022/11/02 08:13:08;;;;;;;13.45;2.28;;;10.70;99.90;;;10.05;100.00;98166.63;4963136;28;20078;-71
2022/11/02 08:15:36;;;;;;;17.45;4.47;;;10.80;99.90;;;10.23;100.00;98153.06;4961955;28;20047;-71
2022/11/02 08:18:17;;;;;;;12.98;2.30;;;11.00;99.90;;;10.33;100.00;98168.38;4961344;28;20047;-70
2022/11/02 08:20:46;;;;;;;14.88;2.25;;;11.00;99.90;;;10.25;100.00;98172.03;4962612;28;20054;-70
2022/11/02 08:23:15;;;;;;;18.52;2.50;;;11.10;99.90;;;10.31;100.00;98178.81;4961914;28;20054;-71
2022/11/02 08:25:46;;;;;;;13.68;2.10;;;11.10;99.90;;;10.36;100.00;98179.53;4962496;28;20057;-71
2022/11/02 08:28:18;;;;;;;15.10;2.08;;;11.20;99.90;;;10.53;100.00;98172.94;4976622;28;20077;-70
2022/11/02 08:30:46;;;;;;;11.60;2.03;;;11.20;99.90;;;10.60;100.00;98177.00;4961250;28;20064;-71
2022/11/02 08:33:15;;;;;;;16.73;3.25;;;11.30;99.90;;;10.55;100.00;98187.56;4963022;28;20050;-71
2022/11/02 08:35:45;;;;;;;22.08;3.20;;;11.40;99.90;;;10.62;100.00;98189.03;4975644;28;20069;-70
2022/11/02 08:38:13;;;;;;;17.00;2.28;;;11.60;99.90;;;10.74;100.00;98182.63;4944664;28;20062;-71
2022/11/02 08:40:40;;;;;;;16.33;2.13;;;11.70;99.90;;;10.93;100.00;98190.63;4961951;28;20461;-71
2022/11/02 08:43:11;;;;;;;11.57;2.35;;;11.80;99.90;;;11.16;100.00;98181.19;4962528;28;20051;-70
2022/11/02 08:45:41;;;;;;;18.05;2.72;;;11.90;99.90;;;11.16;100.00;98176.84;4961092;28;20078;-71
2022/11/02 08:48:28;;;;;;;18.85;3.03;;;12.10;99.90;;;11.16;100.00;98184.63;4963390;28;20059;-71
2022/11/02 08:50:55;;;;;;;15.73;2.92;;;12.10;99.90;;;11.06;100.00;98202.28;4962716;28;20050;-70
2022/11/02 08:53:22;;;;;;;17.90;1.95;;;12.10;99.90;;;11.07;100.00;98208.34;4962848;28;20051;-70
2022/11/02 08:55:49;;;;;;;17.27;2.50;;;12.10;99.90;;;11.18;100.00;98207.97;4962191;28;20050;-70
2022/11/02 08:58:17;;;;;;;12.10;2.20;;;12.30;99.90;;;11.50;100.00;98199.88;4962126;28;20418;-72
2022/11/02 09:00:44;;;;;;;13.27;1.95;;;12.50;99.90;;;11.54;100.00;98200.63;4960936;28;20093;-70
2022/11/02 09:03:15;;;;;;;18.35;2.60;;;12.80;99.90;;;11.60;100.00;98189.13;4958874;28;20051;-71
2022/11/02 09:05:45;;;;;;;22.92;2.75;;;12.80;99.90;;;11.48;100.00;98187.81;4959519;28;20653;-70
2022/11/02 09:08:18;;;;;;;16.52;2.25;;;12.90;99.90;;;11.59;100.00;98171.84;4975495;28;20055;-70
2022/11/02 09:10:48;;;;;;;14.55;2.58;;;12.80;99.90;;;11.71;100.00;98177.41;4961072;28;20050;-71
2022/11/02 09:13:19;;;;;;;17.65;2.58;;;12.90;99.90;;;11.40;100.00;98206.28;4962061;28;20047;-71
2022/11/02 09:15:53;;;;;;;10.82;1.70;;;12.90;99.90;;;12.00;100.00;98191.09;4961071;28;20050;-71
2022/11/02 09:18:21;;;;;;;18.75;3.40;;;12.80;99.90;;;11.46;100.00;98205.22;4977074;28;20054;-71
2022/11/02 09:20:48;;;;;;;12.82;2.22;;;12.80;99.90;;;11.63;100.00;98213.28;4962919;28;20600;-70
2022/11/02 09:23:20;;;;;;;14.73;1.73;;;12.60;99.90;;;11.71;100.00;98203.41;4963105;28;20057;-71
2022/11/02 09:25:48;;;;;;;16.90;3.05;;;12.60;99.90;;;11.56;100.00;98205.72;4961041;28;20493;-71
2022/11/02 09:28:15;;;;;;;13.85;2.17;;;12.50;99.90;;;11.51;100.00;98213.69;4977336;28;20046;-71
2022/11/02 09:30:43;;;;;;;19.50;2.15;;;12.60;99.90;;;11.46;100.00;98216.47;4961757;28;20043;-71
2022/11/02 09:33:10;;;;;;;15.73;2.45;;;12.70;99.90;;;11.68;100.00;98221.75;4960792;28;20113;-71
2022/11/02 09:35:44;;;;;;;19.65;2.70;;;12.80;99.90;;;11.39;100.00;98221.94;4978214;28;20129;-72
2022/11/02 09:38:11;;;;;;;16.13;2.92;;;12.90;99.90;;;11.65;100.00;98229.63;4976029;28;20054;-70
2022/11/02 09:41:10;;;;;;;13.57;2.08;;;13.00;99.90;;;11.70;100.00;98226.91;4970445;28;20054;-69
2022/11/02 09:44:06;;;;;;;14.98;2.33;;;13.00;99.90;;;11.72;100.00;98222.47;4965412;28;20472;-70
2022/11/02 09:46:40;;;;;;;13.05;2.50;;;13.00;99.90;;;11.59;100.00;98239.44;4976893;28;20054;-71
2022/11/02 09:49:15;;;;;;;18.95;2.80;;;12.90;99.90;;;11.75;100.00;98237.13;4958619;28;20062;-69
2022/11/02 09:51:54;;;;;;;17.48;3.13;;;12.90;99.90;;;11.59;100.00;98249.84;4958680;28;20066;-69
2022/11/02 09:54:35;;;;;;;12.07;1.92;;;12.70;99.90;;;11.67;100.00;98242.59;4969620;28;20770;-71
2022/11/02 09:57:09;;;;;;;14.32;2.05;;;12.60;99.90;;;11.97;100.00;98240.63;4956705;28;20089;-71
2022/11/02 09:59:37;;;;;;;11.38;1.70;;;12.70;99.90;;;11.77;100.00;98264.78;4959537;28;20047;-71
2022/11/02 10:02:26;;;;;;;15.27;2.22;;;12.90;99.90;;;12.06;100.00;98257.66;4957488;28;20055;-69
2022/11/02 10:05:39;;;;;;;16.85;3.42;;;13.30;99.90;;;12.37;100.00;98254.75;4962053;28;20052;-71
2022/11/02 10:08:28;;;;;;;15.50;2.08;;;13.50;99.90;;;12.36;100.00;98255.63;4976014;28;20595;-71
2022/11/02 10:11:31;;;;;;;14.57;2.08;;;13.60;99.90;;;12.09;100.00;98273.19;4960858;28;20409;-69
2022/11/02 10:14:01;;;;;;;12.93;2.40;;;13.40;99.90;;;11.90;100.00;98271.22;4974394;28;20149;-70
2022/11/02 10:16:39;;;;;;;19.02;2.65;;;13.20;99.90;;;11.96;100.00;98284.94;4964032;28;20051;-70
2022/11/02 10:19:13;;;;;;;18.05;2.10;;;13.00;99.90;;;11.75;100.00;98282.19;4964102;28;20089;-70
2022/11/02 10:21:44;;;;;;;12.15;1.80;;;13.20;99.90;;;11.99;100.00;98285.66;4977834;28;20051;-70
2022/11/02 10:24:24;;;;;;;14.20;2.28;;;13.10;99.90;;;12.14;100.00;98266.03;4977046;28;20053;-71
2022/11/02 10:26:59;;;;;;;16.48;2.40;;;13.20;99.90;;;11.93;100.00;98284.16;4963612;28;20050;-71
2022/11/02 10:29:46;;;;;;;15.20;2.10;;;13.20;99.90;;;11.64;100.00;98284.31;4964556;28;20062;-69
2022/11/02 10:32:15;;;;;;;17.45;2.80;;;13.10;99.90;;;11.93;100.00;98255.53;4965288;28;20051;-70
2022/11/02 10:34:43;;;;;;;19.13;2.72;;;13.00;99.90;;;11.91;100.00;98272.09;4967647;28;20051;-70
2022/11/02 10:37:56;;;;;;;15.80;3.08;;;13.00;99.90;;;11.62;100.00;98291.31;4961748;28;20185;-70
2022/11/02 10:40:49;;;;;;;11.20;2.28;;;12.80;99.90;;;11.55;100.00;98277.69;4965382;28;20057;-70
2022/11/02 10:43:40;;;;;;;;;;;12.70;99.90;;;11.39;100.00;98274.78;4961944;28;20057;-70
2022/11/02 10:46:22;;;;;;;13.13;1.95;;;12.60;99.90;;;11.57;100.00;98265.50;4964254;28;20681;-70
2022/11/02 10:49:16;;;;;;;16.57;2.13;;;12.70;99.90;;;11.63;100.00;98264.41;4965014;28;20050;-70
2022/11/02 10:51:43;;;;;;;19.00;2.42;;;12.70;99.90;;;11.84;100.00;98265.41;4961910;28;20070;-71